Time;durP1;ratioP1;P1;durP2;ratioP2;P2;SDS_P1;SDS_P2;PMS_P1;PMS_P2;Temp;Humidity;BMP_temperature;BMP_pressure;BME280_temperature;BME280_humidity;BME280_pressure;Samples;Min_cycle;Max_cycle;Signal;HPM_P1;HPM_P2
2022/03/23 00:01:15;;;;;;;8.60;4.10;;;;;;;1.56;36.09;102238.05;117538;1183;21842;-47
2022/03/23 00:03:45;;;;;;;13.20;3.30;;;;;;;1.54;36.09;102238.98;117496;1184;23718;-48
2022/03/23 00:06:14;;;;;;;8.80;4.00;;;;;;;1.47;36.10;102237.26;117382;1182;22313;-48
2022/03/23 00:08:42;;;;;;;9.30;3.20;;;;;;;1.40;35.80;102236.50;117528;1184;23441;-48
2022/03/23 00:11:33;;;;;;;11.00;3.40;;;;;;;1.37;35.87;102233.23;117551;1185;21854;-63
2022/03/23 00:14:06;;;;;;;6.40;2.60;;;;;;;1.33;35.94;102229.92;117444;1184;23649;-62
2022/03/23 00:16:54;;;;;;;10.20;3.20;;;;;;;1.28;35.94;102230.52;117395;1185;23160;-48
2022/03/23 00:19:23;;;;;;;11.10;2.80;;;;;;;1.28;35.86;102224.14;117362;1185;24158;-48
2022/03/23 00:21:52;;;;;;;8.40;3.60;;;;;;;1.28;36.16;102227.06;117514;1185;23455;-62
2022/03/23 00:24:21;;;;;;;7.50;3.30;;;;;;;1.29;36.15;102226.95;117497;1184;21966;-48
2022/03/23 00:26:51;;;;;;;10.80;3.40;;;;;;;1.32;36.22;102223.98;117490;1183;22935;-48
2022/03/23 00:29:19;;;;;;;10.10;2.90;;;;;;;1.39;36.21;102221.06;117567;1184;21855;-63
2022/03/23 00:31:48;;;;;;;8.10;2.70;;;;;;;1.41;36.17;102219.79;117536;1184;23529;-63
2022/03/23 00:34:17;;;;;;;9.30;3.20;;;;;;;1.44;36.05;102218.05;117480;1183;21854;-48
2022/03/23 00:36:45;;;;;;;11.20;3.90;;;;;;;1.46;36.15;102213.67;117482;1185;23523;-63
2022/03/23 00:39:14;;;;;;;10.70;2.90;;;;;;;1.47;36.10;102208.86;117381;1184;23472;-62
2022/03/23 00:41:49;;;;;;;10.20;3.60;;;;;;;1.48;36.24;102209.95;117548;1185;21843;-48
2022/03/23 00:44:17;;;;;;;7.00;2.90;;;;;;;1.49;36.38;102205.68;117452;1184;23656;-63
2022/03/23 00:46:45;;;;;;;12.80;4.30;;;;;;;1.50;36.27;102209.71;117494;1186;24155;-49
2022/03/23 00:49:14;;;;;;;8.30;3.20;;;;;;;1.51;36.31;102206.30;117470;1184;23468;-63
2022/03/23 00:51:42;;;;;;;11.20;3.10;;;;;;;1.51;36.44;102204.06;117506;1186;22931;-49
2022/03/23 00:54:12;;;;;;;8.10;2.90;;;;;;;1.51;36.24;102205.46;117546;1184;23806;-49
2022/03/23 00:56:41;;;;;;;7.80;3.30;;;;;;;1.52;36.32;102203.78;117539;1186;21848;-63
2022/03/23 00:59:11;;;;;;;7.70;2.70;;;;;;;1.53;36.42;102202.11;117491;1185;22960;-63
2022/03/23 01:01:40;;;;;;;11.10;4.60;;;;;;;1.54;36.51;102200.44;117448;1185;21839;-63
2022/03/23 01:04:10;;;;;;;10.60;4.20;;;;;;;1.56;36.50;102193.95;117501;1185;23442;-49
2022/03/23 01:06:48;;;;;;;9.00;4.00;;;;;;;1.56;36.46;102194.84;117439;1185;23439;-63
2022/03/23 01:09:22;;;;;;;8.10;4.20;;;;;;;1.56;36.48;102193.43;117662;1184;23469;-64
2022/03/23 01:11:55;;;;;;;9.10;3.10;;;;;;;1.54;36.42;102198.52;117419;1183;24154;-64
2022/03/23 01:14:25;;;;;;;10.40;4.30;;;;;;;1.53;36.50;102193.96;117457;1181;22921;-49
2022/03/23 01:16:57;;;;;;;24.60;12.30;;;;;;;1.52;36.58;102194.94;117453;1186;21845;-49
2022/03/23 01:19:27;;;;;;;89.20;38.20;;;;;;;1.51;36.47;102196.29;117452;1185;23516;-49
2022/03/23 01:21:56;;;;;;;;;;;;;;;1.50;36.50;102197.10;117463;1186;21829;-63
2022/03/23 01:24:24;;;;;;;105.70;42.50;;;;;;;1.50;36.51;102192.44;117509;1185;21855;-63
2022/03/23 01:26:53;;;;;;;60.30;21.80;;;;;;;1.51;36.43;102185.88;117433;1186;23467;-50
2022/03/23 01:29:22;;;;;;;28.40;10.10;;;;;;;1.51;36.50;102183.28;117490;1185;22911;-63
2022/03/23 01:31:52;;;;;;;19.20;6.30;;;;;;;1.51;36.61;102178.27;117466;1183;21858;-64
2022/03/23 01:34:20;;;;;;;11.50;4.60;;;;;;;1.50;36.56;102178.95;117501;1185;21864;-49
2022/03/23 01:36:49;;;;;;;10.40;4.40;;;;;;;1.49;36.49;102175.77;117488;1185;24168;-47
2022/03/23 01:39:18;;;;;;;11.30;4.40;;;;;;;1.48;36.61;102173.46;117482;1186;24207;-47
2022/03/23 01:41:47;;;;;;;8.70;3.40;;;;;;;1.47;36.55;102173.95;117403;1185;24155;-61
2022/03/23 01:44:17;;;;;;;13.20;5.10;;;;;;;1.45;36.64;102176.23;117439;1185;23548;-47
2022/03/23 01:47:20;;;;;;;;;;;;;;;1.43;36.65;102175.63;117523;1179;21830;-47
2022/03/23 01:49:52;;;;;;;29.70;14.50;;;;;;;1.40;36.65;102174.95;116951;1189;21856;-48
2022/03/23 01:52:23;;;;;;;15.70;7.90;;;;;;;1.39;36.64;102179.39;117006;1188;21864;-63
2022/03/23 01:54:52;;;;;;;11.60;5.10;;;;;;;1.41;36.49;102183.12;116999;1186;21851;-61
2022/03/23 01:57:21;;;;;;;10.10;4.10;;;;;;;1.41;36.77;102183.80;117006;1188;23088;-47
2022/03/23 01:59:49;;;;;;;8.10;3.60;;;;;;;1.38;36.61;102184.48;117035;1188;21886;-47
2022/03/23 02:02:40;;;;;;;8.30;3.60;;;;;;;1.31;36.83;102185.01;116987;1188;22534;-59
2022/03/23 02:05:10;;;;;;;11.50;3.40;;;;;;;1.27;37.00;102186.02;117031;1188;21847;-47
2022/03/23 02:07:39;;;;;;;6.70;2.70;;;;;;;1.25;36.82;102186.58;116958;1189;22654;-61
2022/03/23 02:10:08;;;;;;;9.90;3.30;;;;;;;1.22;36.80;102185.70;117007;1188;21852;-47
2022/03/23 02:12:56;;;;;;;10.90;3.30;;;;;;;1.18;36.88;102183.45;116950;1186;22609;-46
2022/03/23 02:15:28;;;;;;;9.50;3.80;;;;;;;1.17;36.75;102183.88;117054;1189;21944;-47
2022/03/23 02:17:57;;;;;;;9.50;3.50;;;;;;;1.15;36.73;102185.67;117042;1188;21854;-49
2022/03/23 02:20:26;;;;;;;8.80;4.20;;;;;;;1.14;36.88;102186.82;117048;1189;23593;-47
2022/03/23 02:22:57;;;;;;;8.40;2.90;;;;;;;1.11;36.80;102188.23;116904;1189;21931;-61
2022/03/23 02:25:27;;;;;;;8.60;3.10;;;;;;;1.09;36.94;102188.30;117256;1185;23452;-62
2022/03/23 02:27:56;;;;;;;9.30;3.30;;;;;;;1.07;36.78;102189.41;117483;1185;23579;-61
2022/03/23 02:30:25;;;;;;;9.40;3.00;;;;;;;1.06;36.83;102189.86;117545;1185;21845;-47
2022/03/23 02:32:54;;;;;;;9.10;3.20;;;;;;;1.05;36.96;102189.11;117465;1184;21858;-47
2022/03/23 02:35:23;;;;;;;6.50;2.70;;;;;;;1.03;37.04;102189.72;117490;1185;23506;-62
2022/03/23 02:37:51;;;;;;;8.60;3.30;;;;;;;1.01;37.02;102186.16;117498;1185;24205;-48
2022/03/23 02:40:20;;;;;;;9.40;3.10;;;;;;;1.00;36.85;102185.91;117366;1186;21849;-62
2022/03/23 02:42:48;;;;;;;9.10;3.40;;;;;;;0.98;37.10;102179.73;117530;1185;22922;-62
2022/03/23 02:45:18;;;;;;;8.90;3.10;;;;;;;0.97;36.91;102180.88;117449;1185;23456;-48
2022/03/23 02:47:46;;;;;;;9.30;3.70;;;;;;;0.96;37.05;102177.75;117324;1186;23472;-62
2022/03/23 02:50:15;;;;;;;8.40;3.10;;;;;;;0.96;37.04;102177.05;117452;1186;23547;-62
2022/03/23 03:01:53;;;;;;;9.90;3.30;;;;;;;0.92;37.10;102175.23;117487;1186;23471;-62
2022/03/23 03:04:23;;;;;;;8.40;3.10;;;;;;;0.86;36.98;102177.69;117128;1185;24167;-48
2022/03/23 03:06:52;;;;;;;8.70;3.20;;;;;;;0.84;37.15;102183.10;117444;1184;24224;-48
2022/03/23 03:09:21;;;;;;;8.60;3.30;;;;;;;0.79;37.07;102182.48;117470;1179;22019;-48
2022/03/23 03:11:49;;;;;;;10.20;3.40;;;;;;;0.77;37.30;102179.95;117547;1183;22921;-62
2022/03/23 03:14:20;;;;;;;8.40;2.90;;;;;;;0.76;37.10;102177.64;117472;1185;23661;-47
2022/03/23 03:16:50;;;;;;;10.80;3.60;;;;;;;0.73;37.18;102178.38;117552;1185;23455;-62
2022/03/23 03:19:19;;;;;;;8.60;3.00;;;;;;;0.72;37.33;102180.56;117532;1184;21887;-62
2022/03/23 03:21:48;;;;;;;6.90;2.80;;;;;;;0.70;37.43;102183.54;117383;1179;22914;-61
2022/03/23 03:24:20;;;;;;;8.60;3.40;;;;;;;0.69;37.23;102179.36;117387;1185;24172;-63
2022/03/23 03:26:50;;;;;;;6.80;3.00;;;;;;;0.70;37.20;102179.39;117483;1185;22823;-62
2022/03/23 03:29:18;;;;;;;9.60;3.00;;;;;;;0.70;37.37;102181.81;117455;1185;23489;-62
2022/03/23 03:31:47;;;;;;;7.40;3.00;;;;;;;0.69;37.48;102183.85;117450;1181;23559;-48
2022/03/23 03:34:16;;;;;;;10.70;3.50;;;;;;;0.70;37.39;102183.33;117421;1184;21843;-63
2022/03/23 03:36:45;;;;;;;11.00;3.90;;;;;;;0.69;37.50;102183.48;117468;1185;24166;-48
2022/03/23 03:39:13;;;;;;;9.00;4.40;;;;;;;0.67;37.41;102179.55;117497;1183;23551;-48
2022/03/23 03:41:43;;;;;;;12.20;3.50;;;;;;;0.66;37.37;102181.05;117480;1186;22616;-47
2022/03/23 03:44:12;;;;;;;9.80;4.10;;;;;;;0.64;37.40;102179.23;117385;1185;22620;-48
2022/03/23 03:46:41;;;;;;;7.80;3.10;;;;;;;0.62;37.56;102178.27;117285;1186;23471;-47
2022/03/23 03:49:10;;;;;;;7.50;4.10;;;;;;;0.61;37.42;102180.23;117455;1181;23679;-47
2022/03/23 03:51:39;;;;;;;7.60;3.60;;;;;;;0.59;37.08;102179.64;117301;1186;23560;-62
2022/03/23 03:54:08;;;;;;;7.80;3.50;;;;;;;0.58;37.47;102181.84;117473;1184;21889;-62
2022/03/23 03:56:36;;;;;;;8.10;2.90;;;;;;;0.57;37.56;102182.11;117472;1185;21897;-61
2022/03/23 03:59:10;;;;;;;11.00;3.20;;;;;;;0.55;37.54;102179.38;117507;1185;23592;-48
2022/03/23 04:01:39;;;;;;;10.60;3.70;;;;;;;0.52;37.53;102178.18;117453;1184;23544;-47
2022/03/23 04:04:16;;;;;;;8.80;3.20;;;;;;;0.50;37.54;102179.44;117423;1185;23640;-61
2022/03/23 04:06:46;;;;;;;6.40;2.80;;;;;;;0.48;37.57;102178.47;117342;1185;21846;-48
2022/03/23 04:09:34;;;;;;;11.20;3.60;;;;;;;0.45;37.68;102175.55;117608;1185;21992;-48
2022/03/23 04:12:04;;;;;;;9.70;3.40;;;;;;;0.43;37.73;102176.85;117492;1184;23442;-62
2022/03/23 04:14:52;;;;;;;9.40;3.00;;;;;;;0.44;37.75;102177.39;117391;1186;24158;-47
2022/03/23 04:17:21;;;;;;;9.60;2.90;;;;;;;0.46;37.78;102180.42;117504;1185;22164;-48
2022/03/23 04:20:11;;;;;;;7.40;3.10;;;;;;;0.47;37.58;102178.23;117391;1186;21866;-48
2022/03/23 04:22:40;;;;;;;8.00;3.00;;;;;;;0.49;37.71;102177.16;117422;1186;22922;-48
2022/03/23 04:25:10;;;;;;;11.60;3.20;;;;;;;0.51;37.83;102176.75;117436;1185;23475;-48
2022/03/23 04:27:49;;;;;;;11.90;2.80;;;;;;;0.54;38.10;102177.27;117395;1185;24203;-48
2022/03/23 04:30:20;;;;;;;9.60;3.50;;;;;;;0.62;38.10;102174.64;117370;1180;22921;-48
2022/03/23 04:32:49;;;;;;;;;;;;;;;0.72;38.19;102172.05;117441;1183;21834;-48
2022/03/23 04:35:17;;;;;;;12.00;3.50;;;;;;;0.80;38.26;102171.31;117466;1184;21845;-48
2022/03/23 04:37:51;;;;;;;20.20;9.50;;;;;;;0.89;38.39;102169.55;117386;1179;21848;-48
2022/03/23 04:40:22;;;;;;;81.30;35.30;;;;;;;0.97;38.12;102167.56;117437;1185;23454;-48
2022/03/23 04:42:53;;;;;;;83.10;37.20;;;;;;;1.02;38.40;102165.61;117483;1185;22642;-62
2022/03/23 04:45:22;;;;;;;63.20;28.90;;;;;;;1.07;38.28;102167.28;117499;1185;21848;-62
2022/03/23 04:47:51;;;;;;;50.20;23.90;;;;;;;1.13;38.33;102170.70;117485;1184;23576;-48
2022/03/23 04:50:21;;;;;;;63.10;25.20;;;;;;;1.21;38.39;102165.77;117493;1183;21849;-63
2022/03/23 04:52:52;;;;;;;91.00;36.70;;;;;;;1.31;38.55;102170.48;117512;1185;23445;-48
2022/03/23 04:55:21;;;;;;;100.00;38.00;;;;;;;1.42;38.64;102165.67;117537;1185;23533;-49
2022/03/23 04:57:52;;;;;;;76.60;29.10;;;;;;;1.57;38.74;102168.92;117421;1181;23470;-49
2022/03/23 05:00:21;;;;;;;36.60;15.00;;;;;;;1.71;38.86;102163.09;117475;1185;23469;-48
2022/03/23 05:02:50;;;;;;;23.00;9.70;;;;;;;1.85;38.78;102167.25;117555;1184;21974;-63
2022/03/23 05:05:18;;;;;;;18.30;7.20;;;;;;;1.97;38.81;102163.22;117434;1183;24154;-48
2022/03/23 05:08:07;;;;;;;14.40;6.10;;;;;;;2.13;39.13;102162.30;117379;1186;23536;-48
2022/03/23 05:10:35;;;;;;;12.30;4.20;;;;;;;2.29;39.28;102163.45;117294;1185;22924;-49
2022/03/23 05:13:04;;;;;;;9.60;4.70;;;;;;;2.46;39.38;102164.10;117476;1185;23466;-50
2022/03/23 05:15:33;;;;;;;11.20;4.80;;;;;;;2.63;39.37;102163.89;117413;1184;22957;-47
2022/03/23 05:18:03;;;;;;;7.10;3.60;;;;;;;2.82;39.29;102163.23;118886;1185;24260;-48
2022/03/23 05:20:32;;;;;;;11.20;3.80;;;;;;;3.01;39.30;102163.27;117566;1185;21944;-49
2022/03/23 05:23:00;;;;;;;18.10;5.20;;;;;;;3.20;39.42;102162.06;117535;1184;21968;-65
2022/03/23 05:25:30;;;;;;;16.10;3.70;;;;;;;3.40;39.63;102161.27;117547;1180;23547;-62
2022/03/23 05:27:58;;;;;;;10.00;3.50;;;;;;;3.60;39.56;102162.70;117332;1185;22927;-48
2022/03/23 05:30:26;;;;;;;17.70;4.20;;;;;;;3.87;39.64;102165.08;117437;1185;23468;-65
2022/03/23 05:32:55;;;;;;;9.90;4.00;;;;;;;4.15;39.62;102165.21;117477;1185;23602;-48
2022/03/23 05:35:24;;;;;;;10.90;3.50;;;;;;;4.32;39.53;102169.59;117536;1185;23560;-48
2022/03/23 05:37:54;;;;;;;8.70;4.00;;;;;;;4.52;39.80;102163.81;117575;1184;21878;-50
2022/03/23 05:40:23;;;;;;;9.10;3.10;;;;;;;4.72;39.85;102159.41;117541;1185;22928;-48
2022/03/23 05:42:52;;;;;;;7.90;3.50;;;;;;;4.90;39.76;102160.30;117552;1186;21852;-66
2022/03/23 05:45:23;;;;;;;10.10;4.10;;;;;;;5.08;39.93;102160.99;117483;1184;24154;-49
2022/03/23 05:47:53;;;;;;;11.00;3.90;;;;;;;5.26;39.62;102158.89;117509;1183;22478;-65
2022/03/23 05:50:22;;;;;;;10.10;3.40;;;;;;;5.42;39.56;102159.48;117444;1185;21981;-65
2022/03/23 05:52:53;;;;;;;9.90;3.10;;;;;;;5.63;39.67;102155.37;117514;1184;21847;-49
2022/03/23 05:55:21;;;;;;;9.40;4.10;;;;;;;5.84;39.99;102155.45;117464;1185;23675;-49
2022/03/23 05:57:51;;;;;;;7.90;3.00;;;;;;;6.02;39.93;102151.91;117460;1185;23445;-49
2022/03/23 06:00:20;;;;;;;10.00;3.30;;;;;;;6.20;39.69;102152.38;117544;1185;22942;-63
2022/03/23 06:02:52;;;;;;;7.20;3.20;;;;;;;6.38;39.82;102149.30;117464;1185;21929;-62
2022/03/23 06:05:20;;;;;;;5.80;3.60;;;;;;;6.58;39.75;102148.55;117389;1184;23711;-64
2022/03/23 06:07:50;;;;;;;10.80;3.40;;;;;;;6.78;39.86;102147.45;117503;1184;23442;-48
2022/03/23 06:10:18;;;;;;;11.40;3.70;;;;;;;6.98;40.01;102148.26;117375;1185;23454;-49
2022/03/23 06:13:04;;;;;;;10.80;5.10;;;;;;;7.22;39.95;102142.85;117392;1186;21880;-48
2022/03/23 06:15:33;;;;;;;7.60;3.70;;;;;;;7.43;39.91;102140.84;117488;1185;23445;-62
2022/03/23 06:18:01;;;;;;;6.40;3.20;;;;;;;7.62;39.75;102139.30;117523;1184;21844;-49
2022/03/23 06:20:30;;;;;;;6.50;3.20;;;;;;;7.83;39.64;102139.33;117460;1185;21861;-49
2022/03/23 06:23:15;;;;;;;8.10;3.40;;;;;;;8.07;39.74;102136.66;117425;1185;23576;-50
2022/03/23 06:25:43;;;;;;;9.40;3.40;;;;;;;8.32;39.77;102135.02;119564;1184;22335;-51
2022/03/23 06:28:12;;;;;;;11.50;4.00;;;;;;;8.60;39.91;102133.98;119565;1183;22215;-49
2022/03/23 06:30:41;;;;;;;10.60;3.60;;;;;;;8.91;39.88;102129.46;119361;1184;21800;-49
2022/03/23 06:33:09;;;;;;;10.10;4.00;;;;;;;9.22;39.85;102125.21;119586;1184;22238;-49
2022/03/23 06:35:38;;;;;;;9.80;3.50;;;;;;;9.46;39.54;102124.13;119594;1183;21794;-65
2022/03/23 06:38:06;;;;;;;8.20;3.70;;;;;;;9.66;39.59;102120.31;119164;1184;21847;-66
2022/03/23 06:40:35;;;;;;;7.70;3.70;;;;;;;9.92;39.58;102112.92;117826;1181;21847;-66
2022/03/23 06:43:05;;;;;;;7.00;3.10;;;;;;;10.23;39.53;102117.84;117253;1180;24458;-63
2022/03/23 06:45:33;;;;;;;8.90;3.70;;;;;;;10.53;39.64;102116.08;117640;1179;22925;-63
2022/03/23 06:48:03;;;;;;;7.60;3.60;;;;;;;10.82;39.32;102115.64;117445;1183;23548;-63
2022/03/23 06:50:31;;;;;;;7.40;3.50;;;;;;;11.09;39.49;102113.89;117466;1183;22324;-48
2022/03/23 06:53:01;;;;;;;8.50;3.40;;;;;;;11.35;39.29;102105.44;117386;1184;22998;-48
2022/03/23 06:55:30;;;;;;;4.80;3.10;;;;;;;11.58;39.27;102105.17;117522;1185;21851;-64
2022/03/23 06:58:00;;;;;;;8.00;3.60;;;;;;;11.83;39.16;102105.27;117344;1182;21857;-48
2022/03/23 07:00:28;;;;;;;9.90;3.80;;;;;;;12.05;39.11;102103.56;117531;1181;23547;-49
2022/03/23 07:02:57;;;;;;;11.30;3.50;;;;;;;12.25;39.16;102097.58;117350;1185;21849;-49
2022/03/23 07:05:26;;;;;;;6.60;3.50;;;;;;;12.46;38.90;102099.69;117309;1185;23544;-63
2022/03/23 07:10:43;;;;;;;5.70;3.50;;;;;;;12.93;38.84;102091.52;117482;1184;22919;-49
2022/03/23 07:13:14;;;;;;;8.30;3.40;;;;;;;13.15;38.60;102089.86;117504;1182;21840;-49
2022/03/23 07:15:42;;;;;;;9.00;3.40;;;;;;;13.34;38.60;102090.30;117505;1181;22032;-62
2022/03/23 07:18:11;;;;;;;6.20;3.60;;;;;;;13.56;38.50;102087.58;117505;1179;22528;-64
2022/03/23 07:20:40;;;;;;;6.80;3.10;;;;;;;13.76;38.42;102085.67;117528;1185;24159;-48
2022/03/23 07:23:09;;;;;;;5.40;2.90;;;;;;;13.94;38.20;102080.76;117490;1184;21921;-48
2022/03/23 07:25:38;;;;;;;7.40;3.40;;;;;;;14.12;38.17;102083.41;117461;1184;21871;-63
2022/03/23 07:28:07;;;;;;;10.10;3.70;;;;;;;14.32;38.23;102083.95;117431;1184;24233;-48
2022/03/23 07:30:36;;;;;;;6.30;3.70;;;;;;;14.52;38.03;102082.33;117408;1186;21841;-49
2022/03/23 07:33:08;;;;;;;;;;;;;;;14.70;37.92;102081.42;117439;1185;21826;-49
2022/03/23 07:35:36;;;;;;;7.10;3.70;;;;;;;14.85;37.87;102081.57;117525;1184;23395;-48
2022/03/23 07:38:05;;;;;;;8.60;4.60;;;;;;;15.04;37.70;102078.87;117425;1188;23443;-63
2022/03/23 07:40:36;;;;;;;8.20;3.80;;;;;;;15.24;37.72;102073.84;117603;1184;22437;-48
2022/03/23 07:43:04;;;;;;;7.10;4.30;;;;;;;15.43;37.51;102073.91;117483;1184;21853;-48
2022/03/23 07:45:33;;;;;;;12.20;4.50;;;;;;;15.60;37.47;102071.15;117330;1185;23452;-49
2022/03/23 07:48:04;;;;;;;7.00;3.80;;;;;;;15.80;37.40;102069.98;117411;1185;21891;-64
2022/03/23 07:50:33;;;;;;;7.20;3.90;;;;;;;16.01;37.40;102063.46;117556;1184;23452;-63
2022/03/23 07:53:01;;;;;;;7.30;4.10;;;;;;;16.20;37.31;102063.66;117466;1184;21842;-49
2022/03/23 07:55:30;;;;;;;8.20;4.00;;;;;;;16.40;37.15;102061.36;117453;1185;21923;-64
2022/03/23 07:57:58;;;;;;;9.40;4.00;;;;;;;16.57;36.97;102060.11;117484;1185;24165;-49
2022/03/23 08:00:28;;;;;;;7.10;3.70;;;;;;;16.73;36.86;102058.52;117368;1185;23451;-66
2022/03/23 08:02:57;;;;;;;6.20;3.50;;;;;;;16.88;36.79;102055.16;117481;1185;23715;-49
2022/03/23 08:05:25;;;;;;;6.50;3.70;;;;;;;17.04;36.78;102049.50;117528;1185;21855;-66
2022/03/23 08:08:13;;;;;;;6.10;3.70;;;;;;;17.23;36.68;102049.43;117449;1185;21862;-68
2022/03/23 08:10:43;;;;;;;6.00;4.10;;;;;;;17.36;36.47;102045.54;117463;1179;24805;-68
2022/03/23 08:13:31;;;;;;;8.20;4.20;;;;;;;17.46;36.37;102043.78;117363;1183;22800;-66
2022/03/23 08:16:01;;;;;;;8.20;3.60;;;;;;;17.57;36.33;102044.88;117513;1183;22892;-66
2022/03/23 08:18:49;;;;;;;6.50;3.90;;;;;;;17.73;36.15;102040.90;117540;1185;21957;-67
2022/03/23 08:21:19;;;;;;;5.60;3.60;;;;;;;17.91;36.13;102036.89;117516;1185;21840;-48
2022/03/23 08:24:08;;;;;;;6.70;3.90;;;;;;;18.11;36.10;102030.19;117458;1185;23576;-49
2022/03/23 08:26:38;;;;;;;7.90;4.30;;;;;;;18.23;36.07;102025.90;117460;1184;21857;-55
2022/03/23 08:29:08;;;;;;;7.60;3.60;;;;;;;18.42;35.94;102029.10;117378;1185;22869;-48
2022/03/23 08:31:38;;;;;;;7.00;3.60;;;;;;;18.59;35.84;102024.86;117518;1185;23454;-66
2022/03/23 08:34:07;;;;;;;6.40;3.60;;;;;;;18.78;35.78;102027.87;117490;1184;21861;-66
2022/03/23 08:36:36;;;;;;;9.20;4.10;;;;;;;18.94;35.59;102025.77;117499;1179;21862;-66
2022/03/23 08:39:06;;;;;;;6.90;3.80;;;;;;;19.10;35.58;102021.34;117317;1185;22928;-50
2022/03/23 08:41:36;;;;;;;9.40;4.30;;;;;;;19.25;35.54;102018.35;117378;1182;21852;-66
2022/03/23 08:44:04;;;;;;;6.70;3.70;;;;;;;19.43;35.42;102016.33;117394;1183;21856;-65
2022/03/23 08:46:34;;;;;;;5.80;3.50;;;;;;;19.60;35.31;102010.42;117427;1185;21893;-67
2022/03/23 08:49:03;;;;;;;5.90;3.50;;;;;;;19.80;35.18;102001.91;117402;1185;21912;-66
2022/03/23 08:51:32;;;;;;;5.80;3.30;;;;;;;19.94;35.09;102000.17;117321;1181;23669;-49
2022/03/23 08:54:01;;;;;;;5.50;3.20;;;;;;;20.03;35.03;101994.96;117273;1181;21849;-50
2022/03/23 08:56:30;;;;;;;5.50;3.40;;;;;;;20.12;34.91;101993.47;119504;1183;21824;-52
2022/03/23 08:58:59;;;;;;;7.30;3.70;;;;;;;20.20;34.81;101988.44;117649;1179;21858;-51
2022/03/23 09:01:28;;;;;;;8.80;3.60;;;;;;;20.32;34.78;101982.60;117270;1179;21957;-63
2022/03/23 09:04:03;;;;;;;;;;;;;;;20.43;34.66;101980.15;117332;1179;22942;-50
2022/03/23 09:06:32;;;;;;;7.20;3.40;;;;;;;20.53;34.51;101974.70;117352;1179;24165;-64
2022/03/23 09:09:01;;;;;;;7.00;3.40;;;;;;;20.67;34.52;101970.20;117296;1179;24142;-49
2022/03/23 09:11:29;;;;;;;6.30;3.90;;;;;;;20.83;34.37;101967.80;117438;1184;21913;-69
2022/03/23 09:13:58;;;;;;;6.00;3.80;;;;;;;20.97;34.30;101963.97;117337;1181;23547;-68
2022/03/23 09:16:28;;;;;;;24.50;6.30;;;;;;;21.14;34.16;101963.63;117302;1179;21855;-50
2022/03/23 09:19:00;;;;;;;12.30;6.00;;;;;;;21.23;33.92;101962.27;117386;1179;21846;-66
2022/03/23 09:21:30;;;;;;;8.50;4.40;;;;;;;21.21;33.74;101956.44;117378;1180;22983;-67
2022/03/23 09:23:58;;;;;;;8.60;3.90;;;;;;;21.25;33.81;101957.77;117366;1179;21849;-70
2022/03/23 09:26:41;;;;;;;7.00;4.10;;;;;;;21.41;33.77;101957.43;118447;1180;21855;-48
2022/03/23 09:29:10;;;;;;;5.70;3.60;;;;;;;21.60;33.71;101955.20;118565;1181;24276;-71
2022/03/23 09:31:39;;;;;;;7.90;3.50;;;;;;;21.73;33.72;101952.47;117344;1179;23471;-69
2022/03/23 09:34:09;;;;;;;6.90;3.30;;;;;;;21.81;33.70;101945.60;117319;1179;24181;-70
2022/03/23 09:39:24;;;;;;;6.50;2.80;;;;;;;22.09;33.53;101940.10;117441;1179;23573;-65
2022/03/23 09:41:53;;;;;;;10.00;3.50;;;;;;;22.26;33.55;101938.61;117467;1184;22930;-66
2022/03/23 09:44:24;;;;;;;5.50;3.20;;;;;;;22.37;33.23;101931.94;117211;1182;22928;-68
2022/03/23 09:46:52;;;;;;;4.80;2.90;;;;;;;22.42;33.19;101934.80;117402;1179;22922;-68
2022/03/23 09:49:23;;;;;;;23.60;4.20;;;;;;;22.53;33.22;101929.24;117423;1185;23448;-68
2022/03/23 09:51:53;;;;;;;5.90;2.90;;;;;;;22.69;33.24;101922.76;117378;1185;23643;-71
2022/03/23 09:54:22;;;;;;;6.80;2.90;;;;;;;22.87;33.24;101919.19;117340;1184;23556;-67
2022/03/23 09:56:50;;;;;;;6.00;3.00;;;;;;;23.03;33.28;101914.23;117297;1182;23573;-67
2022/03/23 09:59:19;;;;;;;6.00;3.00;;;;;;;23.19;33.16;101910.56;117449;1185;21857;-49
2022/03/23 10:01:49;;;;;;;5.90;3.20;;;;;;;23.38;32.98;101905.86;117393;1185;22905;-67
2022/03/23 10:04:18;;;;;;;7.10;3.50;;;;;;;23.53;32.87;101901.67;117450;1185;23589;-68
2022/03/23 10:07:27;;;;;;;4.30;2.80;;;;;;;23.64;32.67;101898.33;117626;1183;23560;-68
2022/03/23 10:10:34;;;;;;;8.20;3.60;;;;;;;23.71;32.60;101894.05;117449;1185;23445;-49
2022/03/23 10:14:00;;;;;;;8.50;3.20;;;;;;;23.77;32.14;101892.37;117417;1185;21852;-71
2022/03/23 10:17:08;;;;;;;8.50;2.90;;;;;;;23.76;31.84;101887.40;117451;1185;21848;-67
2022/03/23 10:19:56;;;;;;;5.70;2.90;;;;;;;23.80;31.83;101883.84;117412;1185;22615;-50
2022/03/23 10:22:27;;;;;;;9.40;3.20;;;;;;;23.87;31.96;101882.40;117294;1185;23573;-51
2022/03/23 10:24:55;;;;;;;7.70;3.20;;;;;;;23.94;32.02;101876.76;117512;1184;23469;-68
2022/03/23 10:27:25;;;;;;;4.20;2.50;;;;;;;24.05;31.90;101869.46;117488;1185;22921;-51
2022/03/23 10:29:53;;;;;;;5.50;3.10;;;;;;;24.16;31.75;101866.45;117249;1186;23444;-69
2022/03/23 10:32:22;;;;;;;6.20;2.80;;;;;;;24.27;31.83;101866.16;117409;1185;22614;-68
2022/03/23 10:34:57;;;;;;;4.60;3.00;;;;;;;24.41;31.72;101862.65;117449;1186;24165;-68
2022/03/23 10:37:29;;;;;;;4.50;2.60;;;;;;;24.51;31.33;101855.70;117488;1184;24170;-68
2022/03/23 10:40:00;;;;;;;6.50;3.00;;;;;;;24.41;31.24;101853.83;117315;1185;21852;-52
2022/03/23 10:42:31;;;;;;;6.40;3.20;;;;;;;24.51;31.42;101846.56;117410;1182;21893;-51
2022/03/23 10:45:10;;;;;;;4.70;3.30;;;;;;;24.67;31.40;101846.84;117367;1184;24156;-50
2022/03/23 10:47:41;;;;;;;5.10;3.00;;;;;;;24.85;31.25;101839.21;117482;1184;24155;-52
2022/03/23 10:50:15;;;;;;;5.10;3.00;;;;;;;24.95;31.27;101840.83;117359;1182;22921;-68
2022/03/23 10:53:01;;;;;;;6.00;2.60;;;;;;;25.07;31.13;101838.48;117577;1183;23848;-51
2022/03/23 10:55:32;;;;;;;6.00;2.90;;;;;;;25.21;31.03;101834.34;117528;1184;23512;-64
2022/03/23 10:58:01;;;;;;;6.40;2.80;;;;;;;25.25;30.90;101829.67;117454;1186;21954;-52
2022/03/23 11:00:36;;;;;;;7.20;3.40;;;;;;;25.35;30.90;101827.36;118169;1184;23560;-51
2022/03/23 11:03:08;;;;;;;5.30;2.70;;;;;;;25.44;30.85;101819.88;117486;1185;23556;-52
2022/03/23 11:05:37;;;;;;;8.80;2.90;;;;;;;25.53;30.83;101815.30;117399;1184;24159;-68
2022/03/23 11:08:14;;;;;;;5.20;2.70;;;;;;;25.67;30.85;101808.45;117374;1185;22925;-68
2022/03/23 11:16:45;;;;;;;5.90;2.90;;;;;;;25.78;30.63;101795.64;117404;1185;22610;-67
2022/03/23 11:19:20;;;;;;;5.70;2.90;;;;;;;25.84;30.52;101793.89;117013;1186;23519;-51
2022/03/23 11:21:58;;;;;;;4.80;2.60;;;;;;;25.87;30.43;101788.48;117074;1187;24345;-68
2022/03/23 11:24:49;;;;;;;7.90;3.30;;;;;;;25.93;30.42;101785.29;116999;1188;23586;-67
2022/03/23 11:27:30;;;;;;;5.70;2.80;;;;;;;25.88;30.40;101781.61;117117;1188;24704;-50
2022/03/23 11:29:59;;;;;;;7.70;3.20;;;;;;;25.90;30.35;101778.27;117038;1187;24175;-73
2022/03/23 11:32:28;;;;;;;7.40;2.90;;;;;;;25.95;30.37;101771.18;117039;1188;22989;-67
2022/03/23 11:34:59;;;;;;;4.70;3.00;;;;;;;25.97;30.19;101768.73;117198;1187;23551;-66
2022/03/23 11:37:29;;;;;;;4.90;3.20;;;;;;;25.93;30.20;101760.16;117064;1189;22636;-52
2022/03/23 11:39:58;;;;;;;18.00;4.60;;;;;;;25.81;30.13;101757.21;117102;1188;24184;-67
2022/03/23 11:42:27;;;;;;;8.30;3.40;;;;;;;25.76;30.08;101752.10;117032;1188;23487;-66
2022/03/23 11:44:57;;;;;;;5.60;3.20;;;;;;;25.78;30.12;101747.81;117150;1188;21863;-66
2022/03/23 11:47:32;;;;;;;8.40;3.00;;;;;;;25.91;30.12;101748.71;117078;1183;21855;-52
2022/03/23 11:50:23;;;;;;;10.90;3.50;;;;;;;26.06;30.09;101741.62;117112;1186;21852;-66
2022/03/23 11:53:04;;;;;;;6.20;2.90;;;;;;;26.18;29.96;101734.67;117347;1185;24303;-51
2022/03/23 11:55:54;;;;;;;5.90;2.70;;;;;;;26.12;29.71;101735.54;117453;1185;21850;-66
2022/03/23 11:58:37;;;;;;;6.70;3.30;;;;;;;26.10;29.79;101734.34;117338;1185;23573;-67
2022/03/23 12:01:14;;;;;;;4.80;3.00;;;;;;;26.08;29.62;101730.91;117537;1183;22807;-52